createdAt,value
2018-09-25T00:02:29.322Z,2.90
2018-09-25T00:05:03.103Z,2.90
2018-09-25T00:07:36.908Z,2.80
2018-09-25T00:10:10.844Z,2.80
2018-09-25T00:12:44.559Z,2.70
2018-09-25T00:15:18.369Z,2.70
2018-09-25T00:17:52.225Z,2.70
2018-09-25T00:20:26.006Z,2.60
2018-09-25T00:22:59.784Z,2.60
2018-09-25T00:25:33.632Z,2.60
2018-09-25T00:28:07.486Z,2.60
2018-09-25T00:30:41.291Z,2.60
2018-09-25T00:33:15.050Z,2.60
2018-09-25T00:35:48.844Z,2.60
2018-09-25T00:38:22.602Z,2.50
2018-09-25T00:40:56.522Z,2.50
2018-09-25T00:43:30.263Z,2.50
2018-09-25T00:46:04.072Z,2.50
2018-09-25T00:48:37.768Z,2.50
2018-09-25T00:51:11.600Z,2.50
2018-09-25T00:53:45.405Z,2.40
2018-09-25T00:56:19.277Z,2.50
2018-09-25T00:58:53.067Z,2.40
2018-09-25T01:01:26.696Z,2.40
2018-09-25T01:04:00.571Z,2.60
2018-09-25T01:06:34.368Z,2.50
2018-09-25T01:09:08.234Z,2.50
2018-09-25T01:11:42.132Z,2.40
2018-09-25T01:14:16.030Z,2.40
2018-09-25T01:16:49.766Z,2.30
2018-09-25T01:19:23.773Z,2.30
2018-09-25T01:21:57.546Z,2.30
2018-09-25T01:24:31.248Z,2.20
2018-09-25T01:27:05.080Z,2.20
2018-09-25T01:29:38.785Z,2.20
2018-09-25T01:32:12.615Z,2.10
2018-09-25T01:34:46.468Z,2.10
2018-09-25T01:37:20.253Z,2.10
2018-09-25T01:39:54.151Z,2.10
2018-09-25T01:42:27.985Z,2.10
2018-09-25T01:45:01.625Z,2.10
2018-09-25T01:47:35.559Z,2.10
2018-09-25T01:50:09.646Z,2.10
2018-09-25T01:52:43.363Z,2.10
2018-09-25T01:55:17.130Z,2.20
2018-09-25T01:57:51.145Z,2.20
2018-09-25T02:00:25.087Z,2.30
2018-09-25T02:02:58.856Z,2.30
2018-09-25T02:05:32.780Z,2.30
2018-09-25T02:08:06.461Z,2.30
2018-09-25T02:10:40.379Z,2.30
2018-09-25T02:13:14.012Z,2.30
2018-09-25T02:15:47.740Z,2.30
2018-09-25T02:18:21.500Z,2.30
2018-09-25T02:20:55.418Z,2.30
2018-09-25T02:23:29.364Z,2.30
2018-09-25T02:26:03.144Z,2.30
2018-09-25T02:28:36.873Z,2.30
2018-09-25T02:31:10.702Z,2.40
2018-09-25T02:33:44.430Z,2.40
2018-09-25T02:36:18.059Z,2.40
2018-09-25T02:38:51.743Z,2.40
2018-09-25T02:41:25.467Z,2.40
2018-09-25T02:43:59.271Z,2.40
2018-09-25T02:46:33.136Z,2.40
2018-09-25T02:49:07.042Z,2.30
2018-09-25T02:51:40.945Z,2.30
2018-09-25T02:54:14.720Z,2.30
2018-09-25T02:56:48.501Z,2.30
2018-09-25T02:59:22.328Z,2.30
2018-09-25T03:01:56.233Z,2.30
2018-09-25T03:04:30.088Z,2.20
2018-09-25T03:07:03.968Z,2.20
2018-09-25T03:09:37.636Z,2.10
2018-09-25T03:12:11.371Z,2.10
2018-09-25T03:14:45.049Z,2.10
2018-09-25T03:17:18.926Z,2.10
2018-09-25T03:19:52.772Z,2.10
2018-09-25T03:22:26.479Z,2.10
2018-09-25T03:25:00.137Z,2.10
2018-09-25T03:27:34.039Z,2.10
2018-09-25T03:30:07.822Z,2.10
2018-09-25T03:32:41.583Z,2.10
2018-09-25T03:35:15.409Z,2.10
2018-09-25T03:37:49.239Z,2.10
2018-09-25T03:40:23.089Z,2.10
2018-09-25T03:42:57.004Z,2.10
2018-09-25T03:45:30.749Z,2.10
2018-09-25T03:48:04.571Z,2.10
2018-09-25T03:50:38.275Z,2.10
2018-09-25T03:53:12.087Z,2.10
2018-09-25T03:55:45.912Z,2.10
2018-09-25T03:58:19.820Z,2.10
2018-09-25T04:00:53.644Z,2.20
2018-09-25T04:03:27.470Z,2.20
2018-09-25T04:06:01.233Z,2.20
2018-09-25T04:08:35.155Z,2.20
2018-09-25T04:11:08.812Z,2.20
2018-09-25T04:13:42.619Z,2.20
2018-09-25T04:16:16.419Z,2.20
2018-09-25T04:18:50.265Z,2.20
2018-09-25T04:21:24.118Z,2.10
2018-09-25T04:23:57.958Z,2.00
2018-09-25T04:26:31.734Z,2.10
2018-09-25T04:29:05.624Z,2.00
2018-09-25T04:31:39.391Z,2.00
2018-09-25T04:34:13.322Z,2.00
2018-09-25T04:36:47.225Z,1.90
2018-09-25T04:39:21.084Z,1.90
2018-09-25T04:41:55.016Z,1.80
2018-09-25T04:44:28.898Z,1.80
2018-09-25T04:47:02.730Z,1.70
2018-09-25T04:49:36.546Z,1.70
2018-09-25T04:52:10.426Z,1.60
2018-09-25T04:54:44.132Z,1.50
2018-09-25T04:57:18.060Z,1.50
2018-09-25T04:59:51.842Z,1.50
2018-09-25T05:02:25.638Z,1.40
2018-09-25T05:04:59.572Z,1.40
2018-09-25T05:07:33.296Z,1.40
2018-09-25T05:10:07.013Z,1.30
2018-09-25T05:12:40.977Z,1.30
2018-09-25T05:15:14.789Z,1.30
2018-09-25T05:17:48.521Z,1.30
2018-09-25T05:20:22.398Z,1.30
2018-09-25T05:22:56.192Z,1.30
2018-09-25T05:25:30.140Z,1.30
2018-09-25T05:28:03.855Z,1.30
2018-09-25T05:30:37.741Z,1.40
2018-09-25T05:33:11.655Z,1.50
2018-09-25T05:35:45.444Z,1.50
2018-09-25T05:38:19.225Z,1.60
2018-09-25T05:40:53.013Z,1.70
2018-09-25T05:43:26.954Z,1.80
2018-09-25T05:46:00.732Z,1.90
2018-09-25T05:48:34.570Z,2.00
2018-09-25T05:51:08.421Z,2.10
2018-09-25T05:53:42.171Z,2.20
2018-09-25T05:56:16.027Z,2.20
2018-09-25T05:58:49.812Z,2.30
2018-09-25T06:01:23.690Z,2.40
2018-09-25T06:03:57.384Z,2.40
2018-09-25T06:06:31.147Z,2.50
2018-09-25T06:09:04.977Z,2.50
2018-09-25T06:11:39.002Z,2.50
2018-09-25T06:14:12.804Z,2.60
2018-09-25T06:16:46.462Z,2.60
2018-09-25T06:19:20.133Z,2.70
2018-09-25T06:21:53.994Z,2.80
2018-09-25T06:24:27.594Z,3.00
2018-09-25T06:27:01.531Z,3.30
2018-09-25T06:29:35.385Z,3.50
2018-09-25T06:32:09.197Z,3.60
2018-09-25T06:34:42.892Z,4.20
2018-09-25T06:37:16.909Z,5.30
2018-09-25T06:39:50.847Z,5.70
2018-09-25T06:42:24.786Z,5.60
2018-09-25T06:44:58.499Z,5.50
2018-09-25T06:47:32.260Z,5.40
2018-09-25T06:50:06.031Z,5.80
2018-09-25T06:52:39.736Z,6.90
2018-09-25T06:55:13.750Z,8.30
2018-09-25T06:57:47.482Z,9.80
2018-09-25T07:00:21.223Z,10.90
2018-09-25T07:02:54.989Z,11.90
2018-09-25T07:05:28.736Z,12.30
2018-09-25T07:08:02.748Z,12.60
2018-09-25T07:10:36.510Z,13.60
2018-09-25T07:13:10.368Z,14.70
2018-09-25T07:15:44.110Z,15.50
2018-09-25T07:18:17.984Z,16.30
2018-09-25T07:20:51.780Z,16.50
2018-09-25T07:23:25.676Z,16.80
2018-09-25T07:25:59.364Z,17.40
2018-09-25T07:28:33.292Z,17.60
2018-09-25T07:31:07.054Z,17.70
2018-09-25T07:33:40.983Z,17.80
2018-09-25T07:36:14.767Z,18.20
2018-09-25T07:38:48.498Z,17.80
2018-09-25T07:41:22.364Z,18.00
2018-09-25T07:43:56.100Z,18.00
2018-09-25T07:46:29.902Z,18.50
2018-09-25T07:49:03.739Z,19.20
2018-09-25T07:51:37.565Z,19.50
2018-09-25T07:54:11.449Z,19.30
2018-09-25T07:56:45.379Z,18.70
2018-09-25T07:59:19.377Z,18.00
2018-09-25T08:04:37.405Z,18.60
2018-09-25T08:07:11.571Z,18.10
2018-09-25T08:09:45.260Z,18.70
2018-09-25T08:12:19.015Z,18.60
2018-09-25T08:14:52.719Z,17.80
2018-09-25T08:17:26.671Z,18.00
2018-09-25T08:20:00.508Z,17.50
2018-09-25T08:22:34.491Z,17.50
2018-09-25T08:25:08.227Z,16.90
2018-09-25T08:27:41.983Z,16.40
2018-09-25T08:30:15.920Z,16.30
2018-09-25T08:32:49.841Z,15.40
2018-09-25T08:35:23.754Z,14.90
2018-09-25T08:37:57.729Z,14.60
2018-09-25T08:40:31.740Z,14.00
2018-09-25T08:43:05.533Z,13.90
2018-09-25T08:45:39.417Z,13.60
2018-09-25T08:48:13.244Z,13.90
2018-09-25T08:50:47.132Z,14.30
2018-09-25T08:53:20.854Z,14.70
2018-09-25T08:55:54.740Z,14.60
2018-09-25T08:58:28.360Z,14.90
2018-09-25T09:01:02.354Z,14.80
2018-09-25T09:03:36.016Z,15.00
2018-09-25T09:06:09.901Z,15.20
2018-09-25T09:08:43.740Z,15.40
2018-09-25T09:11:17.577Z,15.50
2018-09-25T09:13:51.191Z,15.60
2018-09-25T09:16:25.096Z,15.60
2018-09-25T09:18:59.065Z,15.40
2018-09-25T09:21:32.847Z,15.20
2018-09-25T09:24:06.775Z,14.90
2018-09-25T09:26:40.678Z,14.50
2018-09-25T09:29:14.565Z,14.60
2018-09-25T09:31:48.555Z,14.90
2018-09-25T09:34:22.420Z,15.20
2018-09-25T09:36:56.334Z,15.50
2018-09-25T09:39:30.236Z,15.80
2018-09-25T09:42:04.073Z,16.00
2018-09-25T09:44:37.711Z,15.80
2018-09-25T09:47:11.880Z,15.70
2018-09-25T09:49:45.775Z,15.20
2018-09-25T09:52:19.497Z,15.40
2018-09-25T09:54:54.379Z,15.80
2018-09-25T09:57:28.147Z,15.90
2018-09-25T10:00:01.910Z,16.30
2018-09-25T10:02:35.973Z,16.70
2018-09-25T10:05:09.898Z,16.60
2018-09-25T10:07:43.876Z,16.70
2018-09-25T10:10:17.634Z,16.70
2018-09-25T10:12:51.465Z,16.60
2018-09-25T10:15:25.280Z,16.10
2018-09-25T10:17:59.217Z,15.50
2018-09-25T10:20:32.973Z,15.20
2018-09-25T10:23:06.675Z,14.90
2018-09-25T10:25:40.311Z,14.60
2018-09-25T10:28:14.036Z,14.30
2018-09-25T10:30:47.726Z,14.10
2018-09-25T10:33:21.643Z,13.50
2018-09-25T10:35:55.422Z,13.40
2018-09-25T10:38:29.204Z,13.50
2018-09-25T10:41:03.098Z,13.80
2018-09-25T10:43:36.979Z,14.40
2018-09-25T10:46:10.887Z,14.90
2018-09-25T10:48:44.676Z,15.30
2018-09-25T10:51:18.478Z,15.70
2018-09-25T10:53:52.404Z,16.00
2018-09-25T10:56:26.259Z,16.30
2018-09-25T10:59:00.220Z,16.40
2018-09-25T11:01:34.017Z,16.50
2018-09-25T11:04:07.844Z,16.40
2018-09-25T11:06:41.776Z,16.40
2018-09-25T11:09:15.558Z,16.40
2018-09-25T11:11:49.410Z,16.60
2018-09-25T11:14:23.274Z,16.80
2018-09-25T11:16:57.040Z,17.00
2018-09-25T11:19:30.868Z,17.10
2018-09-25T11:22:04.703Z,16.90
2018-09-25T11:24:38.613Z,16.80
2018-09-25T11:27:12.458Z,16.90
2018-09-25T11:29:46.397Z,16.00
2018-09-25T11:32:20.190Z,15.70
2018-09-25T11:34:53.952Z,15.70
2018-09-25T11:37:27.671Z,15.30
2018-09-25T11:40:01.527Z,14.70
2018-09-25T11:42:35.529Z,14.40
2018-09-25T11:45:09.316Z,14.10
2018-09-25T11:47:43.191Z,14.40
2018-09-25T11:50:17.036Z,14.80
2018-09-25T11:52:50.806Z,15.30
2018-09-25T11:55:24.807Z,15.20
2018-09-25T11:57:58.558Z,15.20
2018-09-25T12:00:32.340Z,15.30
2018-09-25T12:03:06.219Z,15.40
2018-09-25T12:05:40.119Z,15.70
2018-09-25T12:08:13.973Z,16.00
2018-09-25T12:10:47.880Z,16.30
2018-09-25T12:13:21.604Z,16.20
2018-09-25T12:15:55.464Z,16.30
2018-09-25T12:18:29.318Z,16.20
2018-09-25T12:21:03.274Z,16.10
2018-09-25T12:23:38.135Z,16.20
2018-09-25T12:26:12.287Z,16.40
2018-09-25T12:28:46.021Z,16.20
2018-09-25T12:31:19.719Z,15.70
2018-09-25T12:33:53.544Z,15.70
2018-09-25T12:36:27.525Z,15.40
2018-09-25T12:39:01.481Z,15.10
2018-09-25T12:41:35.428Z,15.40
2018-09-25T12:44:09.204Z,15.50
2018-09-25T12:46:43.169Z,15.50
2018-09-25T12:49:16.946Z,15.40
2018-09-25T12:51:50.907Z,15.30
2018-09-25T12:54:24.620Z,15.40
2018-09-25T12:56:58.355Z,15.60
2018-09-25T12:59:32.083Z,15.70
2018-09-25T13:02:06.023Z,15.60
2018-09-25T13:04:39.992Z,15.60
2018-09-25T13:07:13.728Z,15.70
2018-09-25T13:09:47.483Z,15.90
2018-09-25T13:12:21.362Z,16.00
2018-09-25T13:14:55.085Z,16.00
2018-09-25T13:17:28.840Z,16.30
2018-09-25T13:20:02.624Z,16.50
2018-09-25T13:22:36.402Z,16.40
2018-09-25T13:25:10.280Z,16.40
2018-09-25T13:27:44.064Z,16.50
2018-09-25T13:30:17.783Z,16.30
2018-09-25T13:32:51.773Z,16.30
2018-09-25T13:35:25.743Z,16.10
2018-09-25T13:37:59.644Z,16.10
2018-09-25T13:40:33.485Z,16.20
2018-09-25T13:43:07.356Z,16.30
2018-09-25T13:45:41.320Z,16.30
2018-09-25T13:48:15.069Z,16.20
2018-09-25T13:50:49.048Z,15.90
2018-09-25T13:53:23.782Z,16.00
2018-09-25T13:55:57.583Z,16.10
2018-09-25T13:58:31.441Z,16.10
2018-09-25T14:01:05.307Z,16.00
2018-09-25T14:03:39.208Z,15.80
2018-09-25T14:06:12.820Z,15.90
2018-09-25T14:08:46.638Z,16.00
2018-09-25T14:11:20.335Z,15.60
2018-09-25T14:13:54.295Z,15.40
2018-09-25T14:16:28.187Z,15.50
2018-09-25T14:19:01.948Z,15.60
2018-09-25T14:21:35.868Z,15.60
2018-09-25T14:24:09.855Z,15.60
2018-09-25T14:26:43.808Z,15.60
2018-09-25T14:29:17.760Z,15.70
2018-09-25T14:31:51.635Z,15.40
2018-09-25T14:34:25.496Z,15.40
2018-09-25T14:36:59.415Z,15.10
2018-09-25T14:39:33.164Z,15.10
2018-09-25T14:42:06.845Z,15.10
2018-09-25T14:44:40.640Z,15.20
2018-09-25T14:47:14.497Z,15.20
2018-09-25T14:49:48.630Z,15.10
2018-09-25T14:52:22.399Z,15.00
2018-09-25T14:54:56.244Z,14.70
2018-09-25T14:57:30.312Z,14.50
2018-09-25T15:00:04.164Z,14.40
2018-09-25T15:02:40.595Z,14.40
2018-09-25T15:05:14.689Z,14.60
2018-09-25T15:07:48.982Z,14.60
2018-09-25T15:10:22.676Z,14.70
2018-09-25T15:12:56.504Z,14.70
2018-09-25T15:15:30.369Z,14.70
2018-09-25T15:18:04.138Z,14.70
2018-09-25T15:20:37.944Z,14.30
2018-09-25T15:23:11.969Z,14.20
2018-09-25T15:25:45.861Z,14.10
2018-09-25T15:28:19.583Z,13.80
2018-09-25T15:30:53.463Z,13.60
2018-09-25T15:33:27.349Z,13.70
2018-09-25T15:36:01.003Z,13.60
2018-09-25T15:38:35.125Z,13.70
2018-09-25T15:41:09.723Z,13.70
2018-09-25T15:43:43.732Z,13.70
2018-09-25T15:46:17.568Z,13.60
2018-09-25T15:48:52.832Z,13.60
2018-09-25T15:51:29.072Z,13.50
2018-09-25T15:54:05.185Z,13.20
2018-09-25T15:56:40.335Z,13.00
2018-09-25T15:59:14.358Z,12.90
2018-09-25T16:01:48.093Z,12.90
2018-09-25T16:04:21.792Z,12.80
2018-09-25T16:06:55.599Z,12.80
2018-09-25T16:09:29.448Z,12.70
2018-09-25T16:12:03.327Z,12.60
2018-09-25T16:14:37.391Z,12.50
2018-09-25T16:17:11.547Z,12.20
2018-09-25T16:19:45.543Z,11.90
2018-09-25T16:22:19.253Z,11.70
2018-09-25T16:24:53.274Z,11.50
2018-09-25T16:27:28.623Z,11.50
2018-09-25T16:30:03.438Z,11.50
2018-09-25T16:32:39.288Z,11.40
2018-09-25T16:35:14.989Z,11.30
2018-09-25T16:37:49.586Z,11.10
2018-09-25T16:40:24.515Z,11.00
2018-09-25T16:42:59.443Z,10.90
2018-09-25T16:45:34.718Z,10.80
2018-09-25T16:48:09.806Z,10.70
2018-09-25T16:50:44.413Z,10.60
2018-09-25T16:53:18.803Z,10.50
2018-09-25T16:55:53.860Z,10.40
2018-09-25T16:58:28.654Z,10.30
2018-09-25T17:01:02.964Z,10.10
2018-09-25T17:03:36.647Z,10.00
2018-09-25T17:06:12.354Z,10.00
2018-09-25T17:08:48.872Z,9.90
2018-09-25T17:11:22.868Z,9.70
2018-09-25T17:13:57.639Z,9.60
2018-09-25T17:16:31.963Z,9.50
2018-09-25T17:19:06.015Z,9.50
2018-09-25T17:21:41.283Z,9.40
2018-09-25T17:24:15.304Z,9.20
2018-09-25T17:26:49.315Z,9.10
2018-09-25T17:29:23.446Z,9.00
2018-09-25T17:31:59.198Z,8.80
2018-09-25T17:34:33.000Z,8.80
2018-09-25T17:37:06.688Z,8.80
2018-09-25T17:39:40.568Z,8.70
2018-09-25T17:42:14.309Z,8.50
2018-09-25T17:44:48.440Z,8.40
2018-09-25T17:47:22.185Z,8.30
2018-09-25T17:49:56.012Z,8.20
2018-09-25T17:52:29.843Z,8.20
2018-09-25T17:55:03.716Z,8.10
2018-09-25T17:57:37.407Z,8.10
2018-09-25T18:00:12.132Z,7.90
2018-09-25T18:02:46.037Z,7.70
2018-09-25T18:05:20.147Z,7.60
2018-09-25T18:07:54.060Z,7.50
2018-09-25T18:10:28.029Z,7.50
2018-09-25T18:13:01.816Z,7.50
2018-09-25T18:15:35.587Z,7.50
2018-09-25T18:18:09.517Z,7.40
2018-09-25T18:20:43.287Z,7.40
2018-09-25T18:23:17.236Z,7.30
2018-09-25T18:25:51.048Z,7.20
2018-09-25T18:28:24.925Z,7.20
2018-09-25T18:30:59.641Z,7.20
2018-09-25T18:33:33.681Z,7.10
2018-09-25T18:36:08.047Z,7.10
2018-09-25T18:38:41.892Z,7.00
2018-09-25T18:41:15.876Z,6.90
2018-09-25T18:43:53.338Z,6.90
2018-09-25T18:46:27.034Z,6.80
2018-09-25T18:49:03.485Z,6.80
2018-09-25T18:51:37.784Z,6.80
2018-09-25T18:54:11.583Z,6.80
2018-09-25T18:56:48.274Z,6.80
2018-09-25T18:59:23.890Z,6.70
2018-09-25T19:01:58.033Z,6.70
2018-09-25T19:04:32.363Z,6.70
2018-09-25T19:07:07.220Z,6.60
2018-09-25T19:09:41.085Z,6.60
2018-09-25T19:12:17.223Z,6.50
2018-09-25T19:14:51.896Z,6.40
2018-09-25T19:17:27.005Z,6.40
2018-09-25T19:20:01.645Z,6.40
2018-09-25T19:22:35.500Z,6.40
2018-09-25T19:25:09.291Z,6.30
2018-09-25T19:27:43.269Z,6.20
2018-09-25T19:30:17.148Z,6.10
2018-09-25T19:32:50.948Z,6.10
2018-09-25T19:35:24.836Z,6.10
2018-09-25T19:37:58.440Z,6.10
2018-09-25T19:40:32.344Z,6.10
2018-09-25T19:43:06.193Z,6.00
2018-09-25T19:45:39.970Z,6.00
2018-09-25T19:48:13.948Z,5.90
2018-09-25T19:50:47.853Z,5.90
2018-09-25T19:53:21.605Z,5.90
2018-09-25T19:55:55.312Z,5.90
2018-09-25T19:58:29.301Z,5.80
2018-09-25T20:01:03.071Z,5.70
2018-09-25T20:03:36.830Z,5.70
2018-09-25T20:06:10.676Z,5.60
2018-09-25T20:08:44.568Z,5.60
2018-09-25T20:11:18.346Z,5.60
2018-09-25T20:13:52.216Z,5.60
2018-09-25T20:16:26.086Z,5.60
2018-09-25T20:18:59.879Z,5.60
2018-09-25T20:21:33.748Z,5.60
2018-09-25T20:24:07.564Z,5.50
2018-09-25T20:26:41.460Z,5.60
2018-09-25T20:29:15.264Z,5.50
2018-09-25T20:31:48.854Z,5.40
2018-09-25T20:34:22.671Z,5.30
2018-09-25T20:36:56.502Z,5.30
2018-09-25T20:39:30.329Z,5.30
2018-09-25T20:42:04.006Z,5.30
2018-09-25T20:44:37.744Z,5.20
2018-09-25T20:47:11.491Z,5.10
2018-09-25T20:49:45.659Z,5.00
2018-09-25T20:52:19.655Z,4.80
2018-09-25T20:54:53.335Z,4.80
2018-09-25T20:57:27.264Z,4.80
2018-09-25T21:00:01.039Z,4.80
2018-09-25T21:02:34.941Z,4.80
2018-09-25T21:05:08.812Z,4.90
2018-09-25T21:07:42.560Z,4.90
2018-09-25T21:10:16.433Z,4.80
2018-09-25T21:12:50.439Z,4.80
2018-09-25T21:15:24.214Z,4.70
2018-09-25T21:17:57.994Z,4.60
2018-09-25T21:20:31.834Z,4.50
2018-09-25T21:23:05.596Z,4.50
2018-09-25T21:25:39.546Z,4.50
2018-09-25T21:28:13.509Z,4.50
2018-09-25T21:30:47.302Z,4.50
2018-09-25T21:33:21.107Z,4.40
2018-09-25T21:35:54.796Z,4.30
2018-09-25T21:38:28.755Z,4.20
2018-09-25T21:41:02.699Z,4.10
2018-09-25T21:43:36.486Z,4.00
2018-09-25T21:46:10.439Z,3.90
2018-09-25T21:48:44.446Z,3.90
2018-09-25T21:51:18.369Z,3.90
2018-09-25T21:53:52.254Z,4.00
2018-09-25T21:56:26.177Z,3.90
2018-09-25T21:59:00.032Z,3.90
2018-09-25T22:01:33.794Z,3.90
2018-09-25T22:04:07.644Z,3.90
2018-09-25T22:06:41.450Z,3.90
2018-09-25T22:09:15.215Z,3.90
2018-09-25T22:11:48.944Z,3.90
2018-09-25T22:14:22.795Z,3.90
2018-09-25T22:16:56.508Z,3.90
2018-09-25T22:19:30.413Z,3.80
2018-09-25T22:22:04.280Z,3.80
2018-09-25T22:24:37.975Z,3.80
2018-09-25T22:27:11.984Z,3.70
2018-09-25T22:29:45.924Z,3.60
2018-09-25T22:32:19.700Z,3.50
2018-09-25T22:34:53.477Z,3.40
2018-09-25T22:37:27.320Z,3.40
2018-09-25T22:40:01.264Z,3.40
2018-09-25T22:42:35.153Z,3.30
2018-09-25T22:45:09.097Z,3.20
2018-09-25T22:47:42.816Z,3.20
2018-09-25T22:50:16.612Z,3.10
2018-09-25T22:52:50.476Z,3.00
2018-09-25T22:55:24.235Z,3.00
2018-09-25T22:57:57.987Z,2.90
2018-09-25T23:00:31.811Z,2.80
2018-09-25T23:03:05.679Z,2.80
2018-09-25T23:05:39.611Z,2.70
2018-09-25T23:08:13.569Z,2.60
2018-09-25T23:10:47.388Z,2.60
2018-09-25T23:13:21.175Z,2.60
2018-09-25T23:15:54.975Z,2.50
2018-09-25T23:18:28.769Z,2.50
2018-09-25T23:21:02.720Z,2.40
2018-09-25T23:23:36.424Z,2.40
2018-09-25T23:26:10.329Z,2.30
2018-09-25T23:28:44.112Z,2.30
2018-09-25T23:31:17.918Z,2.30
2018-09-25T23:33:51.883Z,2.30
2018-09-25T23:36:25.752Z,2.20
2018-09-25T23:38:59.714Z,2.20
2018-09-25T23:42:32.347Z,2.10
2018-09-25T23:45:05.094Z,2.10
2018-09-25T23:48:12.380Z,2.10
2018-09-25T23:50:51.810Z,2.10
2018-09-25T23:53:23.518Z,2.00
2018-09-25T23:57:59.941Z,2.00
